Time;durP1;ratioP1;P1;durP2;ratioP2;P2;SDS_P1;SDS_P2;PMS_P1;PMS_P2;Temp;Humidity;BMP_temperature;BMP_pressure;BME280_temperature;BME280_humidity;BME280_pressure;Samples;Min_cycle;Max_cycle;Signal;HPM_P1;HPM_P2
2021/11/21 00:01:53;;;;;;;20.80;10.13;;;;;;;;;;4972033;28;20050;-90
2021/11/21 00:07:53;;;;;;;22.38;9.57;;;;;;;;;;4990149;28;20052;-91
2021/11/21 00:13:39;;;;;;;24.83;10.18;;;;;;;;;;5001636;28;20049;-90
2021/11/21 00:16:31;;;;;;;20.27;8.68;;;;;;;;;;4995819;28;20050;-91
2021/11/21 00:22:05;;;;;;;24.45;9.43;;;;;;;;;;4981397;28;20074;-91
2021/11/21 00:25:02;;;;;;;21.85;9.73;;;;;;;;;;4958237;29;20149;-90
2021/11/21 00:27:53;;;;;;;22.17;9.00;;;;;;;;;;4959797;29;20149;-91
2021/11/21 00:30:22;;;;;;;18.83;8.80;;;;;;;;;;4952983;29;20547;-91
2021/11/21 00:33:13;;;;;;;16.50;7.65;;;;;;;;;;4954811;29;20481;-90
2021/11/21 00:38:58;;;;;;;20.83;8.10;;;;;;;;;;4961225;29;20055;-91
2021/11/21 00:41:48;;;;;;;19.05;7.78;;;;;;;;;;4955090;29;20051;-91
2021/11/21 00:44:32;;;;;;;16.67;8.27;;;;;;;;;;4956346;29;20234;-91
2021/11/21 00:50:30;;;;;;;18.33;7.82;;;;;;;;;;4986142;28;20081;-90
2021/11/21 01:01:53;;;;;;;18.27;7.57;;;;;;;;;;4984936;28;20318;-89
2021/11/21 01:04:34;;;;;;;15.85;7.50;;;;;;;;;;4980727;28;20383;-91
2021/11/21 01:16:14;;;;;;;17.17;7.63;;;;;;;;;;4977752;28;20316;-91
2021/11/21 01:18:55;;;;;;;15.45;7.82;;;;;;;;;;4967468;28;20139;-90
2021/11/21 01:21:39;;;;;;;15.60;7.05;;;;;;;;;;4969241;28;20447;-91
2021/11/21 01:24:13;;;;;;;16.60;7.10;;;;;;;;;;4954237;28;21551;-91
2021/11/21 01:27:01;;;;;;;16.23;7.68;;;;;;;;;;4970668;28;20130;-89
2021/11/21 01:32:38;;;;;;;17.30;7.97;;;;;;;;;;4952715;28;20104;-90
2021/11/21 01:35:20;;;;;;;14.50;6.55;;;;;;;;;;4631611;28;10000528;-90
2021/11/21 01:38:05;;;;;;;14.93;6.70;;;;;;;;;;5000215;28;20518;-90
2021/11/21 01:41:06;;;;;;;14.57;6.55;;;;;;;;;;5084320;28;20462;-65
2021/11/21 01:43:35;;;;;;;14.05;6.38;;;;;;;;;;5070537;27;20230;-64
2021/11/21 01:46:04;;;;;;;12.95;6.13;;;;;;;;;;5063862;28;20131;-66
2021/11/21 01:48:33;;;;;;;14.25;5.85;;;;;;;;;;5066023;28;20060;-67
2021/11/21 01:51:12;;;;;;;11.70;5.93;;;;;;;;;;5057559;28;20515;-64
2021/11/21 01:53:41;;;;;;;16.02;6.38;;;;;;;;;;5052675;28;20129;-64
2021/11/21 01:56:11;;;;;;;12.98;6.07;;;;;;;;;;5062439;28;20464;-63
2021/11/21 01:58:40;;;;;;;9.88;5.05;;;;;;;;;;5060344;28;20059;-64
2021/11/21 02:01:08;;;;;;;9.52;5.55;;;;;;;;;;5055488;28;20140;-64
2021/11/21 02:03:37;;;;;;;11.77;4.95;;;;;;;;;;5036001;28;20493;-64
2021/11/21 02:06:05;;;;;;;9.57;5.28;;;;;;;;;;5033128;28;20128;-64
2021/11/21 02:08:34;;;;;;;9.02;4.63;;;;;;;;;;5032659;28;20062;-65
2021/11/21 02:11:02;;;;;;;8.68;4.82;;;;;;;;;;5024980;28;20053;-64
2021/11/21 02:13:32;;;;;;;10.10;5.18;;;;;;;;;;5024460;28;20052;-64
2021/11/21 02:16:00;;;;;;;9.13;4.70;;;;;;;;;;5022377;28;20048;-64
2021/11/21 02:18:29;;;;;;;8.70;4.70;;;;;;;;;;5024825;28;20061;-64
2021/11/21 02:20:59;;;;;;;9.18;4.75;;;;;;;;;;5024911;28;20400;-65
2021/11/21 02:23:28;;;;;;;8.40;4.38;;;;;;;;;;5035471;28;20107;-64
2021/11/21 02:25:56;;;;;;;8.68;4.82;;;;;;;;;;5043966;28;20148;-64
2021/11/21 02:28:25;;;;;;;8.50;4.75;;;;;;;;;;5043925;28;20042;-67
2021/11/21 02:30:53;;;;;;;7.80;4.38;;;;;;;;;;5034682;28;20168;-64
2021/11/21 02:33:22;;;;;;;9.10;4.05;;;;;;;;;;5032044;28;20045;-64
2021/11/21 02:35:52;;;;;;;9.10;4.45;;;;;;;;;;5024681;28;20460;-64
2021/11/21 02:38:24;;;;;;;8.90;4.22;;;;;;;;;;5023063;28;20050;-64
2021/11/21 02:40:52;;;;;;;10.43;5.00;;;;;;;;;;5025060;28;21599;-64
2021/11/21 02:43:22;;;;;;;11.90;4.90;;;;;;;;;;5020656;28;20065;-64
2021/11/21 02:45:51;;;;;;;11.32;4.20;;;;;;;;;;5021898;28;20107;-70
2021/11/21 02:48:21;;;;;;;8.55;4.28;;;;;;;;;;5020026;28;20460;-64
2021/11/21 02:50:49;;;;;;;8.95;4.78;;;;;;;;;;5011830;28;20069;-64
2021/11/21 02:53:18;;;;;;;11.77;4.63;;;;;;;;;;5011171;28;20057;-64
2021/11/21 02:55:49;;;;;;;8.85;3.78;;;;;;;;;;5023745;28;20060;-64
2021/11/21 02:58:17;;;;;;;6.95;3.85;;;;;;;;;;5031525;28;20076;-64
2021/11/21 03:00:46;;;;;;;10.40;4.65;;;;;;;;;;5030219;28;20045;-64
2021/11/21 03:03:15;;;;;;;8.55;3.88;;;;;;;;;;5017806;28;20080;-66
2021/11/21 03:05:43;;;;;;;7.80;3.83;;;;;;;;;;5009073;28;20045;-64
2021/11/21 03:08:11;;;;;;;9.05;4.25;;;;;;;;;;5010343;28;20077;-64
2021/11/21 03:10:40;;;;;;;8.15;4.05;;;;;;;;;;5003289;28;20092;-64
2021/11/21 03:13:10;;;;;;;6.13;3.60;;;;;;;;;;5007516;28;20141;-64
2021/11/21 03:15:38;;;;;;;7.00;4.22;;;;;;;;;;5010976;28;20064;-64
2021/11/21 03:18:07;;;;;;;7.95;4.18;;;;;;;;;;5008768;28;20512;-65
2021/11/21 03:20:36;;;;;;;5.30;3.47;;;;;;;;;;5011051;28;20046;-65
2021/11/21 03:23:05;;;;;;;6.18;3.65;;;;;;;;;;5017663;28;20213;-64
2021/11/21 03:25:34;;;;;;;7.22;4.18;;;;;;;;;;5028587;28;20049;-66
2021/11/21 03:28:03;;;;;;;7.20;3.92;;;;;;;;;;5023698;28;20110;-65
2021/11/21 03:30:33;;;;;;;7.97;3.65;;;;;;;;;;5021179;28;20056;-64
2021/11/21 03:33:01;;;;;;;6.72;3.70;;;;;;;;;;5015643;28;20049;-64
2021/11/21 03:35:29;;;;;;;7.82;3.85;;;;;;;;;;5009460;28;20497;-64
2021/11/21 03:37:58;;;;;;;7.72;3.50;;;;;;;;;;5007405;28;20046;-67
2021/11/21 03:40:27;;;;;;;7.53;3.92;;;;;;;;;;5006711;28;20058;-64
2021/11/21 03:42:55;;;;;;;6.72;3.13;;;;;;;;;;4994363;28;20084;-64
2021/11/21 03:45:24;;;;;;;6.43;3.40;;;;;;;;;;5001517;28;20107;-64
2021/11/21 03:47:54;;;;;;;6.25;3.03;;;;;;;;;;5007678;28;20349;-64
2021/11/21 03:50:22;;;;;;;6.82;3.72;;;;;;;;;;5005293;28;20056;-64
2021/11/21 03:52:51;;;;;;;6.10;3.58;;;;;;;;;;5009971;28;20045;-64
2021/11/21 03:55:19;;;;;;;6.60;3.88;;;;;;;;;;5009721;28;20169;-64
2021/11/21 03:57:48;;;;;;;4.82;3.17;;;;;;;;;;5004507;28;20418;-66
2021/11/21 04:00:18;;;;;;;7.45;3.53;;;;;;;;;;5009280;28;20545;-64
2021/11/21 04:02:47;;;;;;;7.55;3.42;;;;;;;;;;5007348;28;20056;-65
2021/11/21 04:05:17;;;;;;;5.93;3.33;;;;;;;;;;5002779;28;20505;-64
2021/11/21 04:07:45;;;;;;;5.43;3.20;;;;;;;;;;5003232;28;20061;-64
2021/11/21 04:10:14;;;;;;;7.93;3.50;;;;;;;;;;5005242;28;20050;-64
2021/11/21 04:12:43;;;;;;;6.03;3.10;;;;;;;;;;5016746;28;20132;-64
2021/11/21 04:15:12;;;;;;;6.45;3.28;;;;;;;;;;5030177;28;20047;-64
2021/11/21 04:17:41;;;;;;;7.43;3.50;;;;;;;;;;5026198;28;20045;-64
2021/11/21 04:20:10;;;;;;;6.15;3.53;;;;;;;;;;5029274;28;20053;-65
2021/11/21 04:22:40;;;;;;;7.13;3.45;;;;;;;;;;5028922;28;20061;-64
2021/11/21 04:25:10;;;;;;;5.75;3.70;;;;;;;;;;5025884;28;20144;-64
2021/11/21 04:27:38;;;;;;;6.70;3.63;;;;;;;;;;5027770;28;20060;-64
2021/11/21 04:30:07;;;;;;;5.72;3.53;;;;;;;;;;5028665;28;20056;-66
2021/11/21 04:32:37;;;;;;;7.07;3.92;;;;;;;;;;5021195;28;20052;-64
2021/11/21 04:35:06;;;;;;;5.55;3.38;;;;;;;;;;5007748;28;20057;-65
2021/11/21 04:37:35;;;;;;;7.13;3.53;;;;;;;;;;5008632;28;20519;-64
2021/11/21 04:40:05;;;;;;;7.03;4.00;;;;;;;;;;5009607;28;20060;-67
2021/11/21 04:42:34;;;;;;;7.13;4.10;;;;;;;;;;5005727;28;20049;-64
2021/11/21 04:45:02;;;;;;;8.23;4.53;;;;;;;;;;5008218;28;20133;-66
2021/11/21 04:47:31;;;;;;;8.75;4.05;;;;;;;;;;5009489;28;20060;-64
2021/11/21 04:49:59;;;;;;;7.45;3.78;;;;;;;;;;5011010;28;20172;-64
2021/11/21 04:52:28;;;;;;;9.73;4.85;;;;;;;;;;5016200;28;20099;-65
2021/11/21 04:54:56;;;;;;;7.18;3.88;;;;;;;;;;5031649;28;20052;-66
2021/11/21 04:57:26;;;;;;;7.80;3.72;;;;;;;;;;5030105;28;20037;-66
2021/11/21 04:59:54;;;;;;;7.05;3.78;;;;;;;;;;5030041;28;20060;-66
2021/11/21 05:02:23;;;;;;;5.32;3.40;;;;;;;;;;5035988;28;20223;-65
2021/11/21 05:04:51;;;;;;;5.40;3.38;;;;;;;;;;5036082;28;20049;-65
2021/11/21 05:07:19;;;;;;;7.82;3.35;;;;;;;;;;5034981;28;20132;-65
2021/11/21 05:09:48;;;;;;;6.43;3.10;;;;;;;;;;5032921;28;20045;-65
2021/11/21 05:12:16;;;;;;;4.55;3.30;;;;;;;;;;5025408;28;20125;-65
2021/11/21 05:14:46;;;;;;;5.43;3.20;;;;;;;;;;5005079;28;20046;-64
2021/11/21 05:17:14;;;;;;;4.95;2.88;;;;;;;;;;5007008;28;20060;-64
2021/11/21 05:19:43;;;;;;;4.55;2.72;;;;;;;;;;5000399;28;20046;-64
2021/11/21 05:22:11;;;;;;;7.10;3.53;;;;;;;;;;5009347;28;20045;-65
2021/11/21 05:24:39;;;;;;;6.90;3.65;;;;;;;;;;5027784;28;20556;-64
2021/11/21 05:27:08;;;;;;;7.10;3.67;;;;;;;;;;5024947;28;20041;-65
2021/11/21 05:29:36;;;;;;;6.32;3.92;;;;;;;;;;5015331;28;20372;-65
2021/11/21 05:32:06;;;;;;;4.53;3.20;;;;;;;;;;5025457;28;20096;-65
2021/11/21 05:34:35;;;;;;;6.13;3.30;;;;;;;;;;5025087;28;20045;-65
2021/11/21 05:37:04;;;;;;;5.78;3.22;;;;;;;;;;5028417;28;20045;-65
2021/11/21 05:39:32;;;;;;;6.38;3.70;;;;;;;;;;5028136;28;20148;-65
2021/11/21 05:42:01;;;;;;;9.30;3.85;;;;;;;;;;5017148;28;20081;-64
2021/11/21 05:44:30;;;;;;;6.20;3.67;;;;;;;;;;5022880;28;20045;-64
2021/11/21 05:46:58;;;;;;;7.18;4.03;;;;;;;;;;5028871;28;20045;-66
2021/11/21 05:49:28;;;;;;;6.30;3.55;;;;;;;;;;5025331;28;20072;-65
2021/11/21 05:51:56;;;;;;;8.02;3.83;;;;;;;;;;5027216;28;20124;-65
2021/11/21 05:54:25;;;;;;;8.82;4.50;;;;;;;;;;5023857;28;20037;-64
2021/11/21 05:56:53;;;;;;;7.45;4.18;;;;;;;;;;5024853;28;20129;-65
2021/11/21 05:59:22;;;;;;;6.13;3.60;;;;;;;;;;5027025;28;20571;-65
2021/11/21 06:01:50;;;;;;;6.60;3.30;;;;;;;;;;5018856;28;20046;-67
2021/11/21 06:04:19;;;;;;;5.75;3.78;;;;;;;;;;5017249;28;20133;-65
2021/11/21 06:06:48;;;;;;;6.57;3.38;;;;;;;;;;5028100;28;20061;-65
2021/11/21 06:09:17;;;;;;;6.22;3.42;;;;;;;;;;5024956;28;20136;-65
2021/11/21 06:11:45;;;;;;;6.13;3.47;;;;;;;;;;5024041;28;20045;-64
2021/11/21 06:14:13;;;;;;;8.18;4.07;;;;;;;;;;5008171;28;20136;-64
2021/11/21 06:16:42;;;;;;;6.15;3.38;;;;;;;;;;5008141;28;20472;-65
2021/11/21 06:19:10;;;;;;;4.45;2.72;;;;;;;;;;4999225;28;20457;-64
2021/11/21 06:21:39;;;;;;;9.32;3.80;;;;;;;;;;4999055;28;20058;-64
2021/11/21 06:24:09;;;;;;;8.52;3.78;;;;;;;;;;5002596;28;20073;-65
2021/11/21 06:26:37;;;;;;;6.80;4.22;;;;;;;;;;5005850;28;20272;-64
2021/11/21 06:29:06;;;;;;;6.00;3.47;;;;;;;;;;5009322;28;20056;-65
2021/11/21 06:31:34;;;;;;;6.43;3.50;;;;;;;;;;5001774;28;20057;-65
2021/11/21 06:34:02;;;;;;;6.97;3.75;;;;;;;;;;4998891;28;20049;-62
2021/11/21 06:36:31;;;;;;;6.85;3.47;;;;;;;;;;5004465;28;20064;-64
2021/11/21 06:39:00;;;;;;;5.78;3.33;;;;;;;;;;5006893;28;21284;-64
2021/11/21 06:41:30;;;;;;;6.15;3.15;;;;;;;;;;5013147;28;20060;-63
2021/11/21 06:43:58;;;;;;;6.18;3.33;;;;;;;;;;5006681;28;20074;-64
2021/11/21 06:46:27;;;;;;;8.93;3.10;;;;;;;;;;5012212;28;20041;-63
2021/11/21 06:48:55;;;;;;;6.07;2.92;;;;;;;;;;5010781;28;20476;-66
2021/11/21 06:51:24;;;;;;;6.03;3.35;;;;;;;;;;5011296;28;20061;-64
2021/11/21 06:53:52;;;;;;;5.47;3.00;;;;;;;;;;5024732;28;20140;-64
2021/11/21 06:56:21;;;;;;;7.88;2.95;;;;;;;;;;5030810;28;20125;-64
2021/11/21 06:58:51;;;;;;;5.55;3.65;;;;;;;;;;5025816;28;20057;-65
2021/11/21 07:01:19;;;;;;;5.07;2.88;;;;;;;;;;5029047;28;20081;-64
2021/11/21 07:03:48;;;;;;;6.75;2.67;;;;;;;;;;5030560;28;20109;-64
2021/11/21 07:06:29;;;;;;;5.78;3.58;;;;;;;;;;5029896;28;20056;-64
2021/11/21 07:08:58;;;;;;;7.00;3.58;;;;;;;;;;5027672;28;20075;-66
2021/11/21 07:11:27;;;;;;;5.03;2.90;;;;;;;;;;5030753;28;20420;-64
2021/11/21 07:13:57;;;;;;;5.85;3.20;;;;;;;;;;5010128;28;20057;-63
2021/11/21 07:16:26;;;;;;;5.90;2.78;;;;;;;;;;5005981;28;20053;-64
2021/11/21 07:18:55;;;;;;;6.47;3.55;;;;;;;;;;5006591;28;20041;-63
2021/11/21 07:21:23;;;;;;;7.03;3.83;;;;;;;;;;5001542;28;20133;-64
2021/11/21 07:23:52;;;;;;;5.00;3.15;;;;;;;;;;4997120;28;20078;-66
2021/11/21 07:26:20;;;;;;;6.80;3.30;;;;;;;;;;5007514;28;20140;-64
2021/11/21 07:28:49;;;;;;;6.85;2.78;;;;;;;;;;5006186;28;20409;-64
2021/11/21 07:31:19;;;;;;;6.45;3.35;;;;;;;;;;5001832;28;20060;-64
2021/11/21 07:33:47;;;;;;;6.82;3.75;;;;;;;;;;5001833;28;20049;-64
2021/11/21 07:36:16;;;;;;;6.05;3.58;;;;;;;;;;5006218;28;20049;-66
2021/11/21 07:38:44;;;;;;;6.13;3.33;;;;;;;;;;5004496;28;20125;-64
2021/11/21 07:41:13;;;;;;;6.90;3.75;;;;;;;;;;5009195;28;20052;-64
2021/11/21 07:43:42;;;;;;;5.53;3.40;;;;;;;;;;5007819;28;20587;-64
2021/11/21 07:46:10;;;;;;;6.10;3.65;;;;;;;;;;4991904;28;20149;-64
2021/11/21 07:48:40;;;;;;;6.30;3.53;;;;;;;;;;5005848;28;20128;-64
2021/11/21 07:51:09;;;;;;;5.95;3.55;;;;;;;;;;5002404;28;20456;-64
2021/11/21 07:53:38;;;;;;;4.97;3.28;;;;;;;;;;5016297;28;20373;-64
2021/11/21 07:56:07;;;;;;;7.18;3.60;;;;;;;;;;5022881;28;20136;-65
2021/11/21 07:58:35;;;;;;;6.65;3.85;;;;;;;;;;5023092;28;20046;-66
2021/11/21 08:01:04;;;;;;;6.15;3.90;;;;;;;;;;5023897;28;20488;-64
2021/11/21 08:03:33;;;;;;;8.68;3.90;;;;;;;;;;5029015;28;20168;-64
2021/11/21 08:06:04;;;;;;;10.68;3.95;;;;;;;;;;5029753;28;20049;-65
2021/11/21 08:08:33;;;;;;;8.00;3.88;;;;;;;;;;5029335;28;20046;-64
2021/11/21 08:11:02;;;;;;;8.02;4.45;;;;;;;;;;5023518;28;20077;-64
2021/11/21 08:13:31;;;;;;;7.28;3.88;;;;;;;;;;5011780;28;20476;-64
2021/11/21 08:16:00;;;;;;;7.05;4.05;;;;;;;;;;5005841;28;20109;-64
2021/11/21 08:18:33;;;;;;;6.00;3.90;;;;;;;;;;5009653;28;20057;-65
2021/11/21 08:21:03;;;;;;;6.70;4.07;;;;;;;;;;5008485;28;20045;-64
2021/11/21 08:23:32;;;;;;;7.68;3.80;;;;;;;;;;5009280;28;20056;-66
2021/11/21 08:26:01;;;;;;;6.82;4.25;;;;;;;;;;5010392;28;20500;-64
2021/11/21 08:28:30;;;;;;;6.53;3.83;;;;;;;;;;5002363;28;20050;-65
2021/11/21 08:30:59;;;;;;;8.57;4.30;;;;;;;;;;5008592;28;20081;-65
2021/11/21 08:33:28;;;;;;;7.43;4.13;;;;;;;;;;5007025;28;20056;-65
2021/11/21 08:35:56;;;;;;;6.97;3.88;;;;;;;;;;5009039;28;20046;-64
2021/11/21 08:38:27;;;;;;;8.45;4.38;;;;;;;;;;4998536;28;20046;-65
2021/11/21 08:40:56;;;;;;;7.40;4.10;;;;;;;;;;5008391;28;20062;-64
2021/11/21 08:43:25;;;;;;;7.97;4.05;;;;;;;;;;5021971;28;20084;-65
2021/11/21 08:45:54;;;;;;;6.95;4.18;;;;;;;;;;5029177;28;20045;-65
2021/11/21 08:48:23;;;;;;;6.45;3.85;;;;;;;;;;5029701;28;20049;-65
2021/11/21 08:50:53;;;;;;;6.82;3.85;;;;;;;;;;5028936;28;20136;-65
2021/11/21 08:53:22;;;;;;;6.85;3.85;;;;;;;;;;5014224;28;20081;-64
2021/11/21 08:55:53;;;;;;;7.00;4.55;;;;;;;;;;5010143;28;20464;-65
2021/11/21 08:58:22;;;;;;;8.27;4.05;;;;;;;;;;5011707;28;20045;-65
2021/11/21 09:00:51;;;;;;;5.78;3.47;;;;;;;;;;5000011;28;20100;-65
2021/11/21 09:03:20;;;;;;;7.65;3.78;;;;;;;;;;5001698;28;22118;-64
2021/11/21 09:05:49;;;;;;;7.47;4.05;;;;;;;;;;5013099;28;20049;-64
2021/11/21 09:08:18;;;;;;;9.30;4.22;;;;;;;;;;5005123;28;20520;-64
2021/11/21 09:10:47;;;;;;;7.13;4.03;;;;;;;;;;4996192;28;20057;-65
2021/11/21 09:13:17;;;;;;;8.05;4.20;;;;;;;;;;5002211;28;20046;-64
2021/11/21 09:15:46;;;;;;;7.72;4.30;;;;;;;;;;5004893;28;20042;-64
2021/11/21 09:18:14;;;;;;;6.22;4.00;;;;;;;;;;5008937;28;20054;-65
2021/11/21 09:20:43;;;;;;;7.85;4.20;;;;;;;;;;5008853;28;20136;-64
2021/11/21 09:23:13;;;;;;;7.07;3.80;;;;;;;;;;5019190;28;20503;-65
2021/11/21 09:25:42;;;;;;;6.50;3.85;;;;;;;;;;5028235;28;20057;-65
2021/11/21 09:28:10;;;;;;;7.18;3.95;;;;;;;;;;5029637;28;20041;-65
2021/11/21 09:30:41;;;;;;;7.47;4.47;;;;;;;;;;5014228;28;20057;-65
2021/11/21 09:33:11;;;;;;;9.05;4.38;;;;;;;;;;5017608;28;20060;-65
2021/11/21 09:35:40;;;;;;;5.95;3.88;;;;;;;;;;5029115;28;20148;-64
2021/11/21 09:38:09;;;;;;;6.07;3.67;;;;;;;;;;5024239;28;20602;-65
2021/11/21 09:40:38;;;;;;;7.05;3.97;;;;;;;;;;5019430;28;20508;-66
2021/11/21 09:43:06;;;;;;;8.05;3.97;;;;;;;;;;5012401;28;20076;-65
2021/11/21 09:45:35;;;;;;;6.05;3.83;;;;;;;;;;5005944;28;20115;-65
2021/11/21 09:48:08;;;;;;;5.70;3.50;;;;;;;;;;5009201;28;20045;-65
2021/11/21 09:50:39;;;;;;;6.55;4.00;;;;;;;;;;5000459;28;20485;-65
2021/11/21 09:53:08;;;;;;;8.40;4.13;;;;;;;;;;5016938;28;20488;-65
2021/11/21 09:55:36;;;;;;;7.95;4.38;;;;;;;;;;5028295;28;20143;-65
2021/11/21 09:58:05;;;;;;;9.02;4.18;;;;;;;;;;5026440;28;20046;-65
2021/11/21 10:00:35;;;;;;;7.43;4.00;;;;;;;;;;5021914;28;20080;-65
2021/11/21 10:03:06;;;;;;;6.88;3.92;;;;;;;;;;5027835;28;20488;-65
2021/11/21 10:05:36;;;;;;;7.18;3.83;;;;;;;;;;5032227;28;20385;-66
2021/11/21 10:08:07;;;;;;;7.30;4.38;;;;;;;;;;5031478;28;20104;-65
2021/11/21 10:10:37;;;;;;;6.75;3.85;;;;;;;;;;5023989;28;20132;-66
2021/11/21 10:13:22;;;;;;;8.38;4.03;;;;;;;;;;5013553;28;20142;-65
2021/11/21 10:15:51;;;;;;;8.65;3.90;;;;;;;;;;5013081;28;20124;-65
2021/11/21 10:18:21;;;;;;;9.55;4.22;;;;;;;;;;5012639;28;20593;-65
2021/11/21 10:20:50;;;;;;;6.45;3.70;;;;;;;;;;5006883;28;20112;-65
2021/11/21 10:23:21;;;;;;;7.03;4.10;;;;;;;;;;5019348;28;20051;-65
2021/11/21 10:25:55;;;;;;;7.90;4.00;;;;;;;;;;5029916;28;20416;-65
2021/11/21 10:28:29;;;;;;;8.70;4.60;;;;;;;;;;5031398;28;20567;-64
2021/11/21 10:31:09;;;;;;;7.75;3.95;;;;;;;;;;5023083;28;20083;-65
2021/11/21 10:33:46;;;;;;;10.60;4.43;;;;;;;;;;5007385;28;20056;-65
2021/11/21 10:36:17;;;;;;;10.98;5.13;;;;;;;;;;5012291;28;20169;-65
2021/11/21 10:38:48;;;;;;;8.20;4.32;;;;;;;;;;5006460;28;20056;-64
2021/11/21 10:41:19;;;;;;;6.72;3.88;;;;;;;;;;5007692;28;20131;-65
2021/11/21 10:43:57;;;;;;;5.43;3.85;;;;;;;;;;5010577;28;20148;-67
2021/11/21 10:46:27;;;;;;;8.10;4.47;;;;;;;;;;5007407;28;20453;-65
2021/11/21 10:49:12;;;;;;;9.80;4.65;;;;;;;;;;5002601;28;20073;-65
2021/11/21 10:51:41;;;;;;;8.98;4.28;;;;;;;;;;5004925;28;20060;-64
2021/11/21 10:54:18;;;;;;;10.98;4.38;;;;;;;;;;5025107;28;20132;-66
2021/11/21 10:56:47;;;;;;;9.38;4.72;;;;;;;;;;5023995;28;20119;-66
2021/11/21 10:59:18;;;;;;;10.30;4.30;;;;;;;;;;5012202;28;20072;-65
2021/11/21 11:01:47;;;;;;;9.23;4.50;;;;;;;;;;5021412;28;20085;-65
2021/11/21 11:04:17;;;;;;;9.10;5.18;;;;;;;;;;5030829;28;20397;-65
2021/11/21 11:06:46;;;;;;;9.43;4.70;;;;;;;;;;5025882;28;20046;-67
2021/11/21 11:09:20;;;;;;;7.85;4.75;;;;;;;;;;5028852;28;20111;-65
2021/11/21 11:11:50;;;;;;;8.60;4.72;;;;;;;;;;5029831;28;20052;-65
2021/11/21 11:14:22;;;;;;;8.77;4.45;;;;;;;;;;5025970;28;20089;-65
2021/11/21 11:16:52;;;;;;;9.63;4.47;;;;;;;;;;5030215;28;20103;-65
2021/11/21 11:19:24;;;;;;;10.63;5.60;;;;;;;;;;5030102;28;20056;-64
2021/11/21 11:21:53;;;;;;;8.25;4.90;;;;;;;;;;5027897;28;20100;-65
2021/11/21 11:24:23;;;;;;;11.23;5.40;;;;;;;;;;5003522;28;20312;-65
2021/11/21 11:27:03;;;;;;;12.15;5.80;;;;;;;;;;5007515;28;20068;-64
2021/11/21 11:29:35;;;;;;;11.80;5.75;;;;;;;;;;5010364;28;20100;-65
2021/11/21 11:32:19;;;;;;;14.95;6.30;;;;;;;;;;5009868;28;20050;-65
2021/11/21 11:34:49;;;;;;;12.60;5.80;;;;;;;;;;5006551;28;20081;-65
2021/11/21 11:37:26;;;;;;;14.55;6.22;;;;;;;;;;5010643;28;20128;-64
2021/11/21 11:39:55;;;;;;;12.93;5.90;;;;;;;;;;5007126;28;20116;-64
2021/11/21 11:42:35;;;;;;;14.43;6.07;;;;;;;;;;4999814;28;20061;-64
2021/11/21 11:45:05;;;;;;;14.32;6.47;;;;;;;;;;5029912;28;20107;-64
2021/11/21 11:47:34;;;;;;;9.50;6.07;;;;;;;;;;5030375;28;20147;-65
2021/11/21 11:50:05;;;;;;;13.50;6.20;;;;;;;;;;5026863;28;20080;-64
2021/11/21 11:52:54;;;;;;;14.70;6.53;;;;;;;;;;5028592;28;20152;-64
2021/11/21 11:55:24;;;;;;;13.60;6.45;;;;;;;;;;5023015;28;20085;-65
2021/11/21 11:57:53;;;;;;;15.52;7.00;;;;;;;;;;5020726;28;20069;-64
2021/11/21 12:00:27;;;;;;;12.48;6.45;;;;;;;;;;5029604;28;20033;-64
2021/11/21 12:02:58;;;;;;;16.23;6.93;;;;;;;;;;5012449;28;20050;-66
2021/11/21 12:05:33;;;;;;;16.55;7.32;;;;;;;;;;5005579;28;20049;-65
2021/11/21 12:08:15;;;;;;;14.90;6.97;;;;;;;;;;5008898;28;20080;-65
2021/11/21 12:10:48;;;;;;;15.43;7.05;;;;;;;;;;5001933;28;20057;-65
2021/11/21 12:13:30;;;;;;;16.50;7.53;;;;;;;;;;5018847;28;20088;-65
2021/11/21 12:16:00;;;;;;;13.85;6.55;;;;;;;;;;5019167;28;20175;-66
2021/11/21 12:18:48;;;;;;;12.27;6.93;;;;;;;;;;5028013;28;20049;-65
2021/11/21 12:21:33;;;;;;;14.07;6.85;;;;;;;;;;5028637;28;20057;-67
2021/11/21 12:24:04;;;;;;;15.18;6.70;;;;;;;;;;5026515;28;20046;-65
2021/11/21 12:26:41;;;;;;;15.50;6.72;;;;;;;;;;5016571;28;20046;-65
2021/11/21 12:29:32;;;;;;;19.17;8.32;;;;;;;;;;5025446;28;20043;-65
2021/11/21 12:32:16;;;;;;;13.48;6.45;;;;;;;;;;5032701;28;20049;-65
2021/11/21 12:34:46;;;;;;;16.65;7.45;;;;;;;;;;5012406;28;20128;-65
2021/11/21 12:37:17;;;;;;;15.10;7.15;;;;;;;;;;5006772;28;20042;-66
2021/11/21 12:39:48;;;;;;;18.30;7.63;;;;;;;;;;5014163;28;20578;-66
2021/11/21 12:42:18;;;;;;;15.98;7.50;;;;;;;;;;5016793;28;20519;-66
2021/11/21 12:44:47;;;;;;;17.80;7.68;;;;;;;;;;5015723;28;20147;-65
2021/11/21 12:47:16;;;;;;;16.90;6.82;;;;;;;;;;4999431;28;20058;-68
2021/11/21 12:49:45;;;;;;;17.67;6.93;;;;;;;;;;5003819;28;20050;-66
2021/11/21 12:52:16;;;;;;;19.50;7.07;;;;;;;;;;5008439;28;20048;-66
2021/11/21 12:54:46;;;;;;;16.48;7.30;;;;;;;;;;5009811;28;20444;-69
2021/11/21 12:57:15;;;;;;;15.38;7.25;;;;;;;;;;5008196;28;20042;-66
2021/11/21 12:59:47;;;;;;;17.13;7.15;;;;;;;;;;5021009;28;20380;-66
2021/11/21 13:02:16;;;;;;;21.33;8.02;;;;;;;;;;5008440;28;20056;-67
2021/11/21 13:04:49;;;;;;;19.23;7.53;;;;;;;;;;5006162;28;20075;-66
2021/11/21 13:07:28;;;;;;;15.23;6.55;;;;;;;;;;5003163;28;20092;-66
2021/11/21 13:10:15;;;;;;;20.60;7.88;;;;;;;;;;5007499;28;20128;-66
2021/11/21 13:12:46;;;;;;;22.50;8.35;;;;;;;;;;5004521;28;20049;-65
2021/11/21 13:15:15;;;;;;;20.20;8.55;;;;;;;;;;4995014;28;20100;-65
2021/11/21 13:17:45;;;;;;;16.42;7.25;;;;;;;;;;5002273;28;20077;-66
2021/11/21 13:20:17;;;;;;;16.65;7.85;;;;;;;;;;5002603;28;20559;-67
2021/11/21 13:22:54;;;;;;;17.83;7.47;;;;;;;;;;5006915;28;20780;-66
2021/11/21 13:25:41;;;;;;;16.65;7.40;;;;;;;;;;5008835;28;20436;-65
2021/11/21 13:28:28;;;;;;;17.92;6.70;;;;;;;;;;5009829;28;20042;-65
2021/11/21 13:31:00;;;;;;;16.60;7.00;;;;;;;;;;5000290;28;20103;-66
2021/11/21 13:33:30;;;;;;;18.83;7.70;;;;;;;;;;5005035;28;20042;-66
2021/11/21 13:36:01;;;;;;;17.80;7.60;;;;;;;;;;5006652;28;20046;-65
2021/11/21 13:38:35;;;;;;;15.82;6.90;;;;;;;;;;5006954;28;20054;-66
2021/11/21 13:41:05;;;;;;;16.52;7.05;;;;;;;;;;5005005;28;20065;-65
2021/11/21 13:43:38;;;;;;;17.08;6.95;;;;;;;;;;5003407;28;20726;-66
2021/11/21 13:46:08;;;;;;;16.75;7.55;;;;;;;;;;5004369;28;20050;-67
2021/11/21 13:48:39;;;;;;;18.67;7.82;;;;;;;;;;5004076;28;20136;-67
2021/11/21 13:51:10;;;;;;;15.93;7.10;;;;;;;;;;5003095;28;20389;-66
2021/11/21 13:53:47;;;;;;;17.90;7.55;;;;;;;;;;5008299;28;20053;-66
2021/11/21 13:56:18;;;;;;;17.33;7.03;;;;;;;;;;5008003;28;20058;-65
2021/11/21 13:58:47;;;;;;;16.38;7.03;;;;;;;;;;5003148;28;20167;-66
2021/11/21 14:01:19;;;;;;;19.55;7.20;;;;;;;;;;5004647;28;20053;-67
2021/11/21 14:03:49;;;;;;;18.02;8.30;;;;;;;;;;5007083;28;20096;-66
2021/11/21 14:06:19;;;;;;;15.00;7.00;;;;;;;;;;5005925;28;20058;-65
2021/11/21 14:08:49;;;;;;;16.75;7.35;;;;;;;;;;5006711;28;20038;-67
2021/11/21 14:11:21;;;;;;;18.27;7.70;;;;;;;;;;5008765;28;20456;-66
2021/11/21 14:13:54;;;;;;;22.20;7.75;;;;;;;;;;5004819;28;20049;-66
2021/11/21 14:16:25;;;;;;;17.73;7.50;;;;;;;;;;5005503;28;20493;-68
2021/11/21 14:18:54;;;;;;;17.23;7.25;;;;;;;;;;5005369;28;20042;-65
2021/11/21 14:21:25;;;;;;;18.38;8.00;;;;;;;;;;4999512;28;20050;-65
2021/11/21 14:24:07;;;;;;;19.38;8.25;;;;;;;;;;4987975;28;20561;-71
2021/11/21 14:26:36;;;;;;;17.08;7.13;;;;;;;;;;5007373;28;20572;-69
2021/11/21 14:29:05;;;;;;;22.33;8.48;;;;;;;;;;4998341;28;20076;-66
2021/11/21 14:31:36;;;;;;;18.30;8.40;;;;;;;;;;4997423;28;20078;-66
2021/11/21 14:34:09;;;;;;;16.45;6.68;;;;;;;;;;5005858;28;20047;-69
2021/11/21 14:36:53;;;;;;;18.85;7.38;;;;;;;;;;5003132;28;20058;-66
2021/11/21 14:39:25;;;;;;;16.13;7.25;;;;;;;;;;5006481;28;20066;-66
2021/11/21 14:42:00;;;;;;;19.02;7.80;;;;;;;;;;5006597;28;20119;-66
2021/11/21 14:44:30;;;;;;;20.90;8.32;;;;;;;;;;5027357;28;20481;-66
2021/11/21 14:47:00;;;;;;;17.55;8.18;;;;;;;;;;5024685;28;20048;-66
2021/11/21 14:49:29;;;;;;;20.08;8.02;;;;;;;;;;5019859;28;20088;-66
2021/11/21 14:51:58;;;;;;;14.43;7.20;;;;;;;;;;5024504;28;20500;-66
2021/11/21 14:54:32;;;;;;;16.92;6.97;;;;;;;;;;5006971;28;20047;-66
2021/11/21 14:57:08;;;;;;;16.90;7.22;;;;;;;;;;5011066;28;20136;-66
2021/11/21 14:59:38;;;;;;;16.73;7.63;;;;;;;;;;5006798;28;20053;-68
2021/11/21 15:02:09;;;;;;;17.40;7.03;;;;;;;;;;4997962;28;20046;-66
2021/11/21 15:04:38;;;;;;;16.63;7.57;;;;;;;;;;5004435;28;20050;-68
2021/11/21 15:07:07;;;;;;;20.08;8.15;;;;;;;;;;5009711;28;20049;-65
2021/11/21 15:09:37;;;;;;;19.05;8.27;;;;;;;;;;4997627;28;20054;-72
2021/11/21 15:12:06;;;;;;;19.30;7.80;;;;;;;;;;5010884;28;20129;-69
2021/11/21 15:14:37;;;;;;;23.02;7.85;;;;;;;;;;5030674;28;20053;-67
2021/11/21 15:17:06;;;;;;;17.70;7.20;;;;;;;;;;5030468;28;20049;-68
2021/11/21 15:19:37;;;;;;;20.08;8.32;;;;;;;;;;5029266;28;20144;-68
2021/11/21 15:22:06;;;;;;;19.25;8.07;;;;;;;;;;5027527;28;20542;-67
2021/11/21 15:24:35;;;;;;;19.98;7.90;;;;;;;;;;5010050;28;20492;-66
2021/11/21 15:27:04;;;;;;;17.38;7.25;;;;;;;;;;5009917;28;20049;-65
2021/11/21 15:29:33;;;;;;;17.17;7.28;;;;;;;;;;5003380;28;20046;-65
2021/11/21 15:32:04;;;;;;;18.88;7.78;;;;;;;;;;4994896;28;20057;-65
2021/11/21 15:34:35;;;;;;;17.33;6.85;;;;;;;;;;5023041;28;20049;-66
2021/11/21 15:37:06;;;;;;;17.00;6.90;;;;;;;;;;5025198;28;20145;-66
2021/11/21 15:39:36;;;;;;;17.02;7.78;;;;;;;;;;5025495;28;20057;-66